Terminal Aerodrome Forecast
Issued by NWS Birmingham, AL

Home | Current Version | Previous Version | Text Only | Print | Product List | Glossary On
Versions: 1 2 3 4 5 6 7 8 9 10 11 12 13 14 15 16
000
FTUS44 KBMX 210528
TAFBHM
TAF
KBHM 210528Z 2106/2206 00000KT P6SM SKC
     FM211700 36005KT P6SM SCT050 PROB30 2119/2123 4SM -TSRA
      BKN035CB=

USA.gov is the U.S. government's official web portal to all federal, state and local government web resources and services.